sensor_id;sensor_type;location;lat;lon;timestamp;P1;durP1;ratioP1;P2;durP2;ratioP2
2860;SDS011;1438;50.922;6.704;2024-01-15T00:01:56;32.70;;;16.27;;
2860;SDS011;1438;50.922;6.704;2024-01-15T00:04:22;30.70;;;13.25;;
2860;SDS011;1438;50.922;6.704;2024-01-15T00:11:50;33.97;;;16.63;;
2860;SDS011;1438;50.922;6.704;2024-01-15T00:14:16;33.45;;;16.70;;
2860;SDS011;1438;50.922;6.704;2024-01-15T00:16:45;31.17;;;15.68;;
2860;SDS011;1438;50.922;6.704;2024-01-15T00:19:10;36.17;;;16.30;;
2860;SDS011;1438;50.922;6.704;2024-01-15T00:21:36;31.80;;;13.93;;
2860;SDS011;1438;50.922;6.704;2024-01-15T00:24:02;36.55;;;15.48;;
2860;SDS011;1438;50.922;6.704;2024-01-15T00:26:28;31.00;;;14.48;;
2860;SDS011;1438;50.922;6.704;2024-01-15T00:28:54;35.93;;;15.70;;
2860;SDS011;1438;50.922;6.704;2024-01-15T00:31:20;38.85;;;19.90;;
2860;SDS011;1438;50.922;6.704;2024-01-15T00:33:46;44.40;;;19.87;;
2860;SDS011;1438;50.922;6.704;2024-01-15T00:36:12;32.63;;;16.88;;
2860;SDS011;1438;50.922;6.704;2024-01-15T00:38:39;35.28;;;17.42;;
2860;SDS011;1438;50.922;6.704;2024-01-15T00:41:05;35.70;;;16.45;;
2860;SDS011;1438;50.922;6.704;2024-01-15T00:43:32;33.22;;;15.80;;
2860;SDS011;1438;50.922;6.704;2024-01-15T00:45:58;37.78;;;17.40;;
2860;SDS011;1438;50.922;6.704;2024-01-15T00:48:24;33.20;;;16.70;;
2860;SDS011;1438;50.922;6.704;2024-01-15T00:50:50;31.13;;;13.93;;
2860;SDS011;1438;50.922;6.704;2024-01-15T00:53:16;36.55;;;15.40;;
2860;SDS011;1438;50.922;6.704;2024-01-15T00:55:42;41.55;;;14.73;;
2860;SDS011;1438;50.922;6.704;2024-01-15T00:58:08;32.90;;;15.70;;
2860;SDS011;1438;50.922;6.704;2024-01-15T01:00:34;33.63;;;17.80;;
2860;SDS011;1438;50.922;6.704;2024-01-15T01:03:00;41.45;;;14.85;;
2860;SDS011;1438;50.922;6.704;2024-01-15T01:05:26;37.27;;;18.87;;
2860;SDS011;1438;50.922;6.704;2024-01-15T01:07:52;26.10;;;12.85;;
2860;SDS011;1438;50.922;6.704;2024-01-15T01:10:18;34.57;;;14.50;;
2860;SDS011;1438;50.922;6.704;2024-01-15T01:12:44;36.75;;;18.38;;
2860;SDS011;1438;50.922;6.704;2024-01-15T01:15:10;32.73;;;14.83;;
2860;SDS011;1438;50.922;6.704;2024-01-15T01:17:36;31.43;;;14.37;;
2860;SDS011;1438;50.922;6.704;2024-01-15T01:20:02;37.33;;;18.75;;
2860;SDS011;1438;50.922;6.704;2024-01-15T01:22:29;29.92;;;14.05;;
2860;SDS011;1438;50.922;6.704;2024-01-15T01:24:55;35.92;;;18.20;;
2860;SDS011;1438;50.922;6.704;2024-01-15T01:27:21;43.83;;;19.90;;
2860;SDS011;1438;50.922;6.704;2024-01-15T01:29:47;42.55;;;17.80;;
2860;SDS011;1438;50.922;6.704;2024-01-15T01:32:13;41.08;;;17.88;;
2860;SDS011;1438;50.922;6.704;2024-01-15T01:34:40;35.30;;;17.80;;
2860;SDS011;1438;50.922;6.704;2024-01-15T01:37:07;43.42;;;17.15;;
2860;SDS011;1438;50.922;6.704;2024-01-15T01:39:33;35.70;;;16.65;;
2860;SDS011;1438;50.922;6.704;2024-01-15T01:41:59;52.57;;;20.43;;
2860;SDS011;1438;50.922;6.704;2024-01-15T01:44:25;49.55;;;19.38;;
2860;SDS011;1438;50.922;6.704;2024-01-15T01:46:51;36.13;;;15.90;;
2860;SDS011;1438;50.922;6.704;2024-01-15T01:49:17;39.10;;;16.73;;
2860;SDS011;1438;50.922;6.704;2024-01-15T01:51:43;44.22;;;18.58;;
2860;SDS011;1438;50.922;6.704;2024-01-15T01:54:09;48.03;;;18.90;;
2860;SDS011;1438;50.922;6.704;2024-01-15T01:56:38;34.78;;;17.27;;
2860;SDS011;1438;50.922;6.704;2024-01-15T01:59:04;40.72;;;18.13;;
2860;SDS011;1438;50.922;6.704;2024-01-15T02:01:32;44.63;;;19.08;;
2860;SDS011;1438;50.922;6.704;2024-01-15T02:03:58;56.30;;;21.38;;
2860;SDS011;1438;50.922;6.704;2024-01-15T02:06:24;51.28;;;19.95;;
2860;SDS011;1438;50.922;6.704;2024-01-15T02:08:50;44.70;;;18.83;;
2860;SDS011;1438;50.922;6.704;2024-01-15T02:11:16;43.95;;;18.73;;
2860;SDS011;1438;50.922;6.704;2024-01-15T02:13:42;49.35;;;21.50;;
2860;SDS011;1438;50.922;6.704;2024-01-15T02:16:08;43.13;;;18.58;;
2860;SDS011;1438;50.922;6.704;2024-01-15T02:18:43;55.63;;;19.37;;
2860;SDS011;1438;50.922;6.704;2024-01-15T02:21:10;52.50;;;20.55;;
2860;SDS011;1438;50.922;6.704;2024-01-15T02:23:36;46.80;;;20.27;;
2860;SDS011;1438;50.922;6.704;2024-01-15T02:26:02;59.03;;;24.20;;
2860;SDS011;1438;50.922;6.704;2024-01-15T02:28:29;41.28;;;19.50;;
2860;SDS011;1438;50.922;6.704;2024-01-15T02:30:55;50.30;;;21.27;;
2860;SDS011;1438;50.922;6.704;2024-01-15T02:33:21;38.58;;;19.33;;
2860;SDS011;1438;50.922;6.704;2024-01-15T02:35:47;43.37;;;18.57;;
2860;SDS011;1438;50.922;6.704;2024-01-15T02:38:15;37.00;;;17.85;;
2860;SDS011;1438;50.922;6.704;2024-01-15T02:40:41;45.60;;;22.23;;
2860;SDS011;1438;50.922;6.704;2024-01-15T02:43:07;52.00;;;18.52;;
2860;SDS011;1438;50.922;6.704;2024-01-15T02:45:33;46.88;;;21.33;;
2860;SDS011;1438;50.922;6.704;2024-01-15T02:47:59;43.35;;;21.85;;
2860;SDS011;1438;50.922;6.704;2024-01-15T02:50:25;36.05;;;17.45;;
2860;SDS011;1438;50.922;6.704;2024-01-15T02:52:51;42.15;;;20.58;;
2860;SDS011;1438;50.922;6.704;2024-01-15T02:55:17;48.63;;;20.52;;
2860;SDS011;1438;50.922;6.704;2024-01-15T02:57:43;39.00;;;19.30;;
2860;SDS011;1438;50.922;6.704;2024-01-15T03:00:10;51.80;;;18.52;;
2860;SDS011;1438;50.922;6.704;2024-01-15T03:02:36;43.05;;;19.80;;
2860;SDS011;1438;50.922;6.704;2024-01-15T03:05:08;48.15;;;20.95;;
2860;SDS011;1438;50.922;6.704;2024-01-15T03:07:34;36.47;;;21.13;;
2860;SDS011;1438;50.922;6.704;2024-01-15T03:10:00;42.55;;;22.00;;
2860;SDS011;1438;50.922;6.704;2024-01-15T03:12:26;45.58;;;19.52;;
2860;SDS011;1438;50.922;6.704;2024-01-15T03:14:52;45.67;;;19.88;;
2860;SDS011;1438;50.922;6.704;2024-01-15T03:17:18;37.53;;;21.70;;
2860;SDS011;1438;50.922;6.704;2024-01-15T03:19:44;43.35;;;22.73;;
2860;SDS011;1438;50.922;6.704;2024-01-15T03:22:10;46.33;;;19.70;;
2860;SDS011;1438;50.922;6.704;2024-01-15T03:24:36;38.92;;;18.48;;
2860;SDS011;1438;50.922;6.704;2024-01-15T03:27:02;39.20;;;21.20;;
2860;SDS011;1438;50.922;6.704;2024-01-15T03:29:28;33.03;;;19.00;;
2860;SDS011;1438;50.922;6.704;2024-01-15T03:31:54;28.40;;;15.57;;
2860;SDS011;1438;50.922;6.704;2024-01-15T03:34:20;49.67;;;21.85;;
2860;SDS011;1438;50.922;6.704;2024-01-15T03:36:46;46.30;;;20.50;;
2860;SDS011;1438;50.922;6.704;2024-01-15T03:39:12;46.37;;;24.17;;
2860;SDS011;1438;50.922;6.704;2024-01-15T03:41:38;43.45;;;21.67;;
2860;SDS011;1438;50.922;6.704;2024-01-15T03:44:04;39.13;;;20.13;;
2860;SDS011;1438;50.922;6.704;2024-01-15T03:46:30;46.70;;;23.05;;
2860;SDS011;1438;50.922;6.704;2024-01-15T03:48:56;58.55;;;24.73;;
2860;SDS011;1438;50.922;6.704;2024-01-15T03:51:23;44.70;;;22.03;;
2860;SDS011;1438;50.922;6.704;2024-01-15T03:53:49;46.03;;;18.80;;
2860;SDS011;1438;50.922;6.704;2024-01-15T03:56:15;36.67;;;20.07;;
2860;SDS011;1438;50.922;6.704;2024-01-15T03:58:41;31.35;;;14.23;;
2860;SDS011;1438;50.922;6.704;2024-01-15T04:01:10;37.25;;;20.38;;
2860;SDS011;1438;50.922;6.704;2024-01-15T04:03:36;43.17;;;21.63;;
2860;SDS011;1438;50.922;6.704;2024-01-15T04:06:03;41.75;;;20.20;;
2860;SDS011;1438;50.922;6.704;2024-01-15T04:08:29;39.20;;;16.17;;
2860;SDS011;1438;50.922;6.704;2024-01-15T04:10:55;39.23;;;18.67;;
2860;SDS011;1438;50.922;6.704;2024-01-15T04:13:21;33.20;;;18.13;;
2860;SDS011;1438;50.922;6.704;2024-01-15T04:15:48;41.63;;;19.25;;
2860;SDS011;1438;50.922;6.704;2024-01-15T04:18:15;31.95;;;15.75;;
2860;SDS011;1438;50.922;6.704;2024-01-15T04:20:41;29.95;;;13.75;;
2860;SDS011;1438;50.922;6.704;2024-01-15T04:23:07;29.27;;;14.70;;
2860;SDS011;1438;50.922;6.704;2024-01-15T04:25:33;32.30;;;16.70;;
2860;SDS011;1438;50.922;6.704;2024-01-15T04:27:59;34.53;;;17.75;;
2860;SDS011;1438;50.922;6.704;2024-01-15T04:30:25;33.60;;;17.97;;
2860;SDS011;1438;50.922;6.704;2024-01-15T04:32:51;32.83;;;17.58;;
2860;SDS011;1438;50.922;6.704;2024-01-15T04:35:17;36.83;;;17.60;;
2860;SDS011;1438;50.922;6.704;2024-01-15T04:37:43;36.50;;;19.07;;
2860;SDS011;1438;50.922;6.704;2024-01-15T04:40:09;28.93;;;15.00;;
2860;SDS011;1438;50.922;6.704;2024-01-15T04:42:35;34.53;;;19.38;;
2860;SDS011;1438;50.922;6.704;2024-01-15T04:45:01;29.60;;;16.97;;
2860;SDS011;1438;50.922;6.704;2024-01-15T04:47:27;26.90;;;14.98;;
2860;SDS011;1438;50.922;6.704;2024-01-15T04:49:53;40.67;;;18.10;;
2860;SDS011;1438;50.922;6.704;2024-01-15T04:52:19;24.30;;;11.50;;
2860;SDS011;1438;50.922;6.704;2024-01-15T04:54:45;29.97;;;15.37;;
2860;SDS011;1438;50.922;6.704;2024-01-15T04:57:11;29.48;;;15.13;;
2860;SDS011;1438;50.922;6.704;2024-01-15T04:59:37;27.98;;;15.63;;
2860;SDS011;1438;50.922;6.704;2024-01-15T05:02:03;33.83;;;16.73;;
2860;SDS011;1438;50.922;6.704;2024-01-15T05:04:29;31.80;;;17.30;;
2860;SDS011;1438;50.922;6.704;2024-01-15T05:06:55;33.15;;;17.67;;
2860;SDS011;1438;50.922;6.704;2024-01-15T05:09:21;31.88;;;17.20;;
2860;SDS011;1438;50.922;6.704;2024-01-15T05:11:47;23.55;;;13.50;;
2860;SDS011;1438;50.922;6.704;2024-01-15T05:14:13;32.95;;;16.52;;
2860;SDS011;1438;50.922;6.704;2024-01-15T05:16:39;28.37;;;15.10;;
2860;SDS011;1438;50.922;6.704;2024-01-15T05:19:06;34.85;;;17.00;;
2860;SDS011;1438;50.922;6.704;2024-01-15T05:21:33;32.47;;;15.30;;
2860;SDS011;1438;50.922;6.704;2024-01-15T05:23:59;33.10;;;16.55;;
2860;SDS011;1438;50.922;6.704;2024-01-15T05:26:25;18.37;;;12.37;;
2860;SDS011;1438;50.922;6.704;2024-01-15T05:28:51;30.35;;;16.85;;
2860;SDS011;1438;50.922;6.704;2024-01-15T05:31:16;31.20;;;13.98;;
2860;SDS011;1438;50.922;6.704;2024-01-15T05:33:42;30.40;;;16.85;;
2860;SDS011;1438;50.922;6.704;2024-01-15T05:36:08;26.43;;;15.00;;
2860;SDS011;1438;50.922;6.704;2024-01-15T05:38:35;25.17;;;13.45;;
2860;SDS011;1438;50.922;6.704;2024-01-15T05:41:01;23.83;;;14.93;;
2860;SDS011;1438;50.922;6.704;2024-01-15T05:43:27;25.92;;;12.60;;
2860;SDS011;1438;50.922;6.704;2024-01-15T05:45:53;24.42;;;14.00;;
2860;SDS011;1438;50.922;6.704;2024-01-15T05:48:19;24.10;;;12.30;;
2860;SDS011;1438;50.922;6.704;2024-01-15T05:50:45;29.30;;;15.45;;
2860;SDS011;1438;50.922;6.704;2024-01-15T05:53:11;39.65;;;16.20;;
2860;SDS011;1438;50.922;6.704;2024-01-15T05:55:37;36.33;;;16.60;;
2860;SDS011;1438;50.922;6.704;2024-01-15T05:58:03;23.95;;;15.82;;
2860;SDS011;1438;50.922;6.704;2024-01-15T06:00:30;25.30;;;14.90;;
2860;SDS011;1438;50.922;6.704;2024-01-15T06:02:57;25.98;;;13.68;;
2860;SDS011;1438;50.922;6.704;2024-01-15T06:05:24;31.67;;;15.68;;
2860;SDS011;1438;50.922;6.704;2024-01-15T06:07:50;38.15;;;18.85;;
2860;SDS011;1438;50.922;6.704;2024-01-15T06:10:16;25.77;;;12.40;;
2860;SDS011;1438;50.922;6.704;2024-01-15T06:12:43;31.88;;;18.52;;
2860;SDS011;1438;50.922;6.704;2024-01-15T06:15:09;27.10;;;16.05;;
2860;SDS011;1438;50.922;6.704;2024-01-15T06:17:35;32.65;;;16.58;;
2860;SDS011;1438;50.922;6.704;2024-01-15T06:20:02;30.92;;;16.27;;
2860;SDS011;1438;50.922;6.704;2024-01-15T06:22:29;39.00;;;21.08;;
2860;SDS011;1438;50.922;6.704;2024-01-15T06:24:55;36.70;;;18.17;;
2860;SDS011;1438;50.922;6.704;2024-01-15T06:27:21;35.85;;;18.67;;
2860;SDS011;1438;50.922;6.704;2024-01-15T06:29:47;34.40;;;19.38;;
2860;SDS011;1438;50.922;6.704;2024-01-15T06:32:13;26.45;;;17.42;;
2860;SDS011;1438;50.922;6.704;2024-01-15T06:34:39;31.02;;;16.48;;
2860;SDS011;1438;50.922;6.704;2024-01-15T06:37:05;28.25;;;16.55;;
2860;SDS011;1438;50.922;6.704;2024-01-15T06:39:31;35.75;;;18.73;;
2860;SDS011;1438;50.922;6.704;2024-01-15T06:41:58;36.15;;;16.92;;
2860;SDS011;1438;50.922;6.704;2024-01-15T06:44:24;27.60;;;14.88;;
2860;SDS011;1438;50.922;6.704;2024-01-15T06:46:49;30.02;;;17.50;;
2860;SDS011;1438;50.922;6.704;2024-01-15T06:49:16;32.40;;;18.75;;
2860;SDS011;1438;50.922;6.704;2024-01-15T06:51:42;30.03;;;15.97;;
2860;SDS011;1438;50.922;6.704;2024-01-15T06:54:08;28.60;;;17.33;;
2860;SDS011;1438;50.922;6.704;2024-01-15T06:56:35;27.80;;;15.05;;
2860;SDS011;1438;50.922;6.704;2024-01-15T06:59:01;30.83;;;15.45;;
2860;SDS011;1438;50.922;6.704;2024-01-15T07:01:27;27.95;;;15.55;;
2860;SDS011;1438;50.922;6.704;2024-01-15T07:03:53;33.75;;;16.27;;
2860;SDS011;1438;50.922;6.704;2024-01-15T07:06:19;27.92;;;15.30;;
2860;SDS011;1438;50.922;6.704;2024-01-15T07:08:45;26.80;;;15.35;;
2860;SDS011;1438;50.922;6.704;2024-01-15T07:11:11;30.70;;;16.30;;
2860;SDS011;1438;50.922;6.704;2024-01-15T07:13:37;28.73;;;16.27;;
2860;SDS011;1438;50.922;6.704;2024-01-15T07:16:03;25.83;;;15.32;;
2860;SDS011;1438;50.922;6.704;2024-01-15T07:18:29;36.65;;;17.83;;
2860;SDS011;1438;50.922;6.704;2024-01-15T07:20:55;28.13;;;17.53;;
2860;SDS011;1438;50.922;6.704;2024-01-15T07:23:21;29.20;;;15.52;;
2860;SDS011;1438;50.922;6.704;2024-01-15T07:25:47;29.55;;;16.02;;
2860;SDS011;1438;50.922;6.704;2024-01-15T07:28:13;27.20;;;12.20;;
2860;SDS011;1438;50.922;6.704;2024-01-15T07:30:39;32.53;;;16.40;;
2860;SDS011;1438;50.922;6.704;2024-01-15T07:33:05;25.75;;;15.35;;
2860;SDS011;1438;50.922;6.704;2024-01-15T07:35:31;37.20;;;20.17;;
2860;SDS011;1438;50.922;6.704;2024-01-15T07:37:57;32.53;;;17.05;;
2860;SDS011;1438;50.922;6.704;2024-01-15T07:40:23;31.75;;;17.58;;
2860;SDS011;1438;50.922;6.704;2024-01-15T07:42:50;31.05;;;18.67;;
2860;SDS011;1438;50.922;6.704;2024-01-15T07:45:16;30.70;;;17.48;;
2860;SDS011;1438;50.922;6.704;2024-01-15T07:47:42;33.97;;;18.17;;
2860;SDS011;1438;50.922;6.704;2024-01-15T07:50:08;34.92;;;19.25;;
2860;SDS011;1438;50.922;6.704;2024-01-15T07:52:34;37.03;;;19.80;;
2860;SDS011;1438;50.922;6.704;2024-01-15T07:55:00;37.00;;;19.30;;
2860;SDS011;1438;50.922;6.704;2024-01-15T07:57:28;43.75;;;19.75;;
2860;SDS011;1438;50.922;6.704;2024-01-15T07:59:54;42.38;;;20.45;;
2860;SDS011;1438;50.922;6.704;2024-01-15T08:02:20;37.75;;;15.57;;
2860;SDS011;1438;50.922;6.704;2024-01-15T08:04:46;31.90;;;17.80;;
2860;SDS011;1438;50.922;6.704;2024-01-15T08:07:12;35.22;;;18.77;;
2860;SDS011;1438;50.922;6.704;2024-01-15T08:09:38;32.75;;;19.77;;
2860;SDS011;1438;50.922;6.704;2024-01-15T08:12:05;19.55;;;12.25;;
2860;SDS011;1438;50.922;6.704;2024-01-15T08:14:31;40.13;;;19.48;;
2860;SDS011;1438;50.922;6.704;2024-01-15T08:16:57;31.05;;;17.38;;
2860;SDS011;1438;50.922;6.704;2024-01-15T08:19:23;27.23;;;14.48;;
2860;SDS011;1438;50.922;6.704;2024-01-15T08:21:49;28.38;;;17.98;;
2860;SDS011;1438;50.922;6.704;2024-01-15T08:24:15;31.88;;;17.42;;
2860;SDS011;1438;50.922;6.704;2024-01-15T08:26:41;27.65;;;15.57;;
2860;SDS011;1438;50.922;6.704;2024-01-15T08:29:07;32.33;;;18.17;;
2860;SDS011;1438;50.922;6.704;2024-01-15T08:31:33;24.00;;;15.98;;
2860;SDS011;1438;50.922;6.704;2024-01-15T08:33:59;33.60;;;16.97;;
2860;SDS011;1438;50.922;6.704;2024-01-15T08:36:26;16.98;;;9.10;;
2860;SDS011;1438;50.922;6.704;2024-01-15T08:38:54;27.02;;;14.05;;
2860;SDS011;1438;50.922;6.704;2024-01-15T08:41:20;25.05;;;13.13;;
2860;SDS011;1438;50.922;6.704;2024-01-15T08:43:46;24.73;;;15.10;;
2860;SDS011;1438;50.922;6.704;2024-01-15T08:46:12;21.65;;;13.80;;
2860;SDS011;1438;50.922;6.704;2024-01-15T08:48:38;27.92;;;12.43;;
2860;SDS011;1438;50.922;6.704;2024-01-15T08:51:04;19.40;;;13.23;;
2860;SDS011;1438;50.922;6.704;2024-01-15T08:53:30;22.23;;;15.27;;
2860;SDS011;1438;50.922;6.704;2024-01-15T08:55:57;25.35;;;15.98;;
2860;SDS011;1438;50.922;6.704;2024-01-15T08:58:23;33.35;;;14.52;;
2860;SDS011;1438;50.922;6.704;2024-01-15T09:00:50;17.45;;;10.25;;
2860;SDS011;1438;50.922;6.704;2024-01-15T09:03:16;23.63;;;14.35;;
2860;SDS011;1438;50.922;6.704;2024-01-15T09:05:42;21.53;;;12.10;;
2860;SDS011;1438;50.922;6.704;2024-01-15T09:08:08;24.65;;;13.55;;
2860;SDS011;1438;50.922;6.704;2024-01-15T09:10:35;20.45;;;12.05;;
2860;SDS011;1438;50.922;6.704;2024-01-15T09:13:01;17.90;;;11.00;;
2860;SDS011;1438;50.922;6.704;2024-01-15T09:15:29;16.00;;;10.25;;
2860;SDS011;1438;50.922;6.704;2024-01-15T09:17:55;20.43;;;11.00;;
2860;SDS011;1438;50.922;6.704;2024-01-15T09:20:23;18.45;;;9.57;;
2860;SDS011;1438;50.922;6.704;2024-01-15T09:22:51;14.13;;;8.20;;
2860;SDS011;1438;50.922;6.704;2024-01-15T09:25:16;13.82;;;9.35;;
2860;SDS011;1438;50.922;6.704;2024-01-15T09:27:44;21.13;;;10.82;;
2860;SDS011;1438;50.922;6.704;2024-01-15T09:30:10;16.38;;;10.80;;
2860;SDS011;1438;50.922;6.704;2024-01-15T09:32:36;14.52;;;9.82;;
2860;SDS011;1438;50.922;6.704;2024-01-15T09:35:02;12.65;;;9.43;;
2860;SDS011;1438;50.922;6.704;2024-01-15T09:37:28;15.00;;;9.82;;
2860;SDS011;1438;50.922;6.704;2024-01-15T09:39:54;11.95;;;8.68;;
2860;SDS011;1438;50.922;6.704;2024-01-15T09:42:20;13.00;;;8.18;;
2860;SDS011;1438;50.922;6.704;2024-01-15T09:44:47;9.90;;;7.57;;
2860;SDS011;1438;50.922;6.704;2024-01-15T09:47:13;14.23;;;6.65;;
2860;SDS011;1438;50.922;6.704;2024-01-15T09:49:41;10.15;;;6.40;;
2860;SDS011;1438;50.922;6.704;2024-01-15T09:52:07;10.35;;;6.45;;
2860;SDS011;1438;50.922;6.704;2024-01-15T09:54:33;8.00;;;5.25;;
2860;SDS011;1438;50.922;6.704;2024-01-15T09:57:00;9.75;;;6.38;;
2860;SDS011;1438;50.922;6.704;2024-01-15T09:59:26;12.70;;;6.93;;
2860;SDS011;1438;50.922;6.704;2024-01-15T10:01:52;10.50;;;5.70;;
2860;SDS011;1438;50.922;6.704;2024-01-15T10:04:19;10.40;;;7.30;;
2860;SDS011;1438;50.922;6.704;2024-01-15T10:06:45;10.90;;;7.33;;
2860;SDS011;1438;50.922;6.704;2024-01-15T10:09:14;10.60;;;6.78;;
2860;SDS011;1438;50.922;6.704;2024-01-15T10:11:41;8.55;;;6.00;;
2860;SDS011;1438;50.922;6.704;2024-01-15T10:14:07;11.48;;;7.07;;
2860;SDS011;1438;50.922;6.704;2024-01-15T10:16:33;10.15;;;7.78;;
2860;SDS011;1438;50.922;6.704;2024-01-15T10:18:59;10.98;;;7.35;;
2860;SDS011;1438;50.922;6.704;2024-01-15T10:21:25;14.88;;;8.82;;
2860;SDS011;1438;50.922;6.704;2024-01-15T10:23:54;11.68;;;7.95;;
2860;SDS011;1438;50.922;6.704;2024-01-15T10:26:24;18.92;;;7.78;;
2860;SDS011;1438;50.922;6.704;2024-01-15T10:28:50;9.43;;;5.85;;
2860;SDS011;1438;50.922;6.704;2024-01-15T10:31:17;13.48;;;6.68;;
2860;SDS011;1438;50.922;6.704;2024-01-15T10:33:44;8.02;;;6.00;;
2860;SDS011;1438;50.922;6.704;2024-01-15T10:36:10;14.05;;;8.15;;
2860;SDS011;1438;50.922;6.704;2024-01-15T10:38:36;9.60;;;6.13;;
2860;SDS011;1438;50.922;6.704;2024-01-15T10:41:03;5.93;;;4.55;;
2860;SDS011;1438;50.922;6.704;2024-01-15T10:43:29;6.80;;;5.40;;
2860;SDS011;1438;50.922;6.704;2024-01-15T10:45:55;6.73;;;5.00;;
2860;SDS011;1438;50.922;6.704;2024-01-15T10:48:21;9.68;;;5.90;;
2860;SDS011;1438;50.922;6.704;2024-01-15T10:50:47;11.55;;;6.65;;
2860;SDS011;1438;50.922;6.704;2024-01-15T10:53:14;12.25;;;7.75;;
2860;SDS011;1438;50.922;6.704;2024-01-15T10:55:41;11.40;;;7.05;;
2860;SDS011;1438;50.922;6.704;2024-01-15T10:58:08;9.75;;;7.38;;
2860;SDS011;1438;50.922;6.704;2024-01-15T11:00:37;10.65;;;7.75;;
2860;SDS011;1438;50.922;6.704;2024-01-15T11:03:04;11.10;;;6.15;;
2860;SDS011;1438;50.922;6.704;2024-01-15T11:05:36;9.45;;;7.18;;
2860;SDS011;1438;50.922;6.704;2024-01-15T11:08:04;10.57;;;7.70;;
2860;SDS011;1438;50.922;6.704;2024-01-15T11:10:38;12.25;;;8.13;;
2860;SDS011;1438;50.922;6.704;2024-01-15T11:13:19;11.05;;;7.15;;
2860;SDS011;1438;50.922;6.704;2024-01-15T11:15:57;11.00;;;7.53;;
2860;SDS011;1438;50.922;6.704;2024-01-15T11:18:26;14.27;;;10.13;;
2860;SDS011;1438;50.922;6.704;2024-01-15T11:23:47;14.20;;;10.57;;
2860;SDS011;1438;50.922;6.704;2024-01-15T11:28:58;12.95;;;10.55;;
2860;SDS011;1438;50.922;6.704;2024-01-15T11:33:54;17.98;;;11.75;;
2860;SDS011;1438;50.922;6.704;2024-01-15T11:36:21;18.88;;;11.88;;
2860;SDS011;1438;50.922;6.704;2024-01-15T11:38:47;20.92;;;12.50;;
2860;SDS011;1438;50.922;6.704;2024-01-15T11:41:15;16.40;;;11.73;;
2860;SDS011;1438;50.922;6.704;2024-01-15T11:43:41;13.20;;;10.75;;
2860;SDS011;1438;50.922;6.704;2024-01-15T11:46:11;17.10;;;11.30;;
2860;SDS011;1438;50.922;6.704;2024-01-15T11:48:43;21.38;;;12.65;;
2860;SDS011;1438;50.922;6.704;2024-01-15T11:51:12;18.65;;;10.15;;
2860;SDS011;1438;50.922;6.704;2024-01-15T11:56:11;19.58;;;14.20;;
2860;SDS011;1438;50.922;6.704;2024-01-15T11:58:39;15.75;;;11.75;;
2860;SDS011;1438;50.922;6.704;2024-01-15T12:01:04;15.15;;;9.90;;
2860;SDS011;1438;50.922;6.704;2024-01-15T12:03:31;16.42;;;11.98;;
2860;SDS011;1438;50.922;6.704;2024-01-15T12:05:58;16.42;;;11.02;;
2860;SDS011;1438;50.922;6.704;2024-01-15T12:08:25;22.02;;;12.25;;
2860;SDS011;1438;50.922;6.704;2024-01-15T12:10:52;11.30;;;7.32;;
2860;SDS011;1438;50.922;6.704;2024-01-15T12:13:18;20.20;;;11.55;;
2860;SDS011;1438;50.922;6.704;2024-01-15T12:15:45;8.68;;;7.03;;
2860;SDS011;1438;50.922;6.704;2024-01-15T12:18:15;34.45;;;11.55;;
2860;SDS011;1438;50.922;6.704;2024-01-15T12:20:41;13.95;;;9.00;;
2860;SDS011;1438;50.922;6.704;2024-01-15T12:23:08;14.90;;;7.95;;
2860;SDS011;1438;50.922;6.704;2024-01-15T12:25:35;18.55;;;9.63;;
2860;SDS011;1438;50.922;6.704;2024-01-15T12:28:01;14.60;;;9.95;;
2860;SDS011;1438;50.922;6.704;2024-01-15T12:30:27;14.18;;;9.60;;
2860;SDS011;1438;50.922;6.704;2024-01-15T12:32:54;22.90;;;9.00;;
2860;SDS011;1438;50.922;6.704;2024-01-15T12:35:20;12.40;;;8.02;;
2860;SDS011;1438;50.922;6.704;2024-01-15T12:37:47;13.80;;;7.45;;
2860;SDS011;1438;50.922;6.704;2024-01-15T12:40:13;13.38;;;9.50;;
2860;SDS011;1438;50.922;6.704;2024-01-15T12:42:44;21.95;;;7.90;;
2860;SDS011;1438;50.922;6.704;2024-01-15T12:45:11;18.97;;;8.00;;
2860;SDS011;1438;50.922;6.704;2024-01-15T12:47:37;17.33;;;6.35;;
2860;SDS011;1438;50.922;6.704;2024-01-15T12:50:10;11.43;;;6.15;;
2860;SDS011;1438;50.922;6.704;2024-01-15T12:52:37;14.07;;;7.28;;
2860;SDS011;1438;50.922;6.704;2024-01-15T12:55:06;20.20;;;7.80;;
2860;SDS011;1438;50.922;6.704;2024-01-15T12:57:33;10.60;;;6.30;;
2860;SDS011;1438;50.922;6.704;2024-01-15T13:00:00;17.35;;;7.00;;
2860;SDS011;1438;50.922;6.704;2024-01-15T13:02:26;14.35;;;6.22;;
2860;SDS011;1438;50.922;6.704;2024-01-15T13:04:52;13.65;;;5.95;;
2860;SDS011;1438;50.922;6.704;2024-01-15T13:07:19;11.68;;;5.35;;
2860;SDS011;1438;50.922;6.704;2024-01-15T13:09:45;10.95;;;6.18;;
2860;SDS011;1438;50.922;6.704;2024-01-15T13:12:11;12.67;;;5.60;;
2860;SDS011;1438;50.922;6.704;2024-01-15T13:14:37;12.17;;;5.10;;
2860;SDS011;1438;50.922;6.704;2024-01-15T13:17:03;8.75;;;5.10;;
2860;SDS011;1438;50.922;6.704;2024-01-15T13:19:29;8.88;;;4.72;;
2860;SDS011;1438;50.922;6.704;2024-01-15T13:21:55;13.75;;;5.82;;
2860;SDS011;1438;50.922;6.704;2024-01-15T13:24:23;7.88;;;3.42;;
2860;SDS011;1438;50.922;6.704;2024-01-15T13:26:49;2.30;;;1.97;;
2860;SDS011;1438;50.922;6.704;2024-01-15T13:29:15;5.85;;;2.60;;
2860;SDS011;1438;50.922;6.704;2024-01-15T13:31:41;3.27;;;1.77;;
2860;SDS011;1438;50.922;6.704;2024-01-15T13:34:07;5.60;;;1.90;;
2860;SDS011;1438;50.922;6.704;2024-01-15T13:36:34;3.35;;;2.78;;
2860;SDS011;1438;50.922;6.704;2024-01-15T13:39:00;3.47;;;1.80;;
2860;SDS011;1438;50.922;6.704;2024-01-15T13:41:26;3.35;;;2.28;;
2860;SDS011;1438;50.922;6.704;2024-01-15T13:43:52;3.67;;;2.10;;
2860;SDS011;1438;50.922;6.704;2024-01-15T13:46:19;2.03;;;1.65;;
2860;SDS011;1438;50.922;6.704;2024-01-15T13:48:45;1.55;;;1.45;;
2860;SDS011;1438;50.922;6.704;2024-01-15T13:51:11;9.50;;;3.00;;
2860;SDS011;1438;50.922;6.704;2024-01-15T13:53:37;3.05;;;2.45;;
2860;SDS011;1438;50.922;6.704;2024-01-15T13:56:04;3.67;;;2.70;;
2860;SDS011;1438;50.922;6.704;2024-01-15T13:58:31;2.58;;;2.38;;
2860;SDS011;1438;50.922;6.704;2024-01-15T14:00:57;2.28;;;2.08;;
2860;SDS011;1438;50.922;6.704;2024-01-15T14:03:23;8.27;;;3.88;;
2860;SDS011;1438;50.922;6.704;2024-01-15T14:05:50;2.92;;;2.13;;
2860;SDS011;1438;50.922;6.704;2024-01-15T14:08:16;2.50;;;1.90;;
2860;SDS011;1438;50.922;6.704;2024-01-15T14:10:42;2.50;;;2.10;;
2860;SDS011;1438;50.922;6.704;2024-01-15T14:13:08;5.50;;;2.45;;
2860;SDS011;1438;50.922;6.704;2024-01-15T14:15:34;2.73;;;1.90;;
2860;SDS011;1438;50.922;6.704;2024-01-15T14:18:00;4.05;;;2.30;;
2860;SDS011;1438;50.922;6.704;2024-01-15T14:20:27;3.08;;;2.05;;
2860;SDS011;1438;50.922;6.704;2024-01-15T14:22:53;4.97;;;2.20;;
2860;SDS011;1438;50.922;6.704;2024-01-15T14:25:19;3.13;;;1.88;;
2860;SDS011;1438;50.922;6.704;2024-01-15T14:27:46;4.22;;;1.73;;
2860;SDS011;1438;50.922;6.704;2024-01-15T14:30:12;4.95;;;2.13;;
2860;SDS011;1438;50.922;6.704;2024-01-15T14:32:38;3.05;;;2.10;;
2860;SDS011;1438;50.922;6.704;2024-01-15T14:35:06;1.95;;;1.77;;
2860;SDS011;1438;50.922;6.704;2024-01-15T14:37:35;5.80;;;2.25;;
2860;SDS011;1438;50.922;6.704;2024-01-15T14:40:01;3.03;;;2.63;;
2860;SDS011;1438;50.922;6.704;2024-01-15T14:42:29;7.22;;;2.55;;
2860;SDS011;1438;50.922;6.704;2024-01-15T14:44:55;7.90;;;2.80;;
2860;SDS011;1438;50.922;6.704;2024-01-15T14:47:21;10.05;;;2.55;;
2860;SDS011;1438;50.922;6.704;2024-01-15T14:49:49;3.00;;;2.25;;
2860;SDS011;1438;50.922;6.704;2024-01-15T14:52:15;4.32;;;2.85;;
2860;SDS011;1438;50.922;6.704;2024-01-15T14:54:41;2.50;;;2.20;;
2860;SDS011;1438;50.922;6.704;2024-01-15T14:57:07;2.75;;;2.13;;
2860;SDS011;1438;50.922;6.704;2024-01-15T14:59:33;3.08;;;2.28;;
2860;SDS011;1438;50.922;6.704;2024-01-15T15:01:59;4.97;;;3.67;;
2860;SDS011;1438;50.922;6.704;2024-01-15T15:04:25;5.82;;;2.60;;
2860;SDS011;1438;50.922;6.704;2024-01-15T15:06:52;3.35;;;3.05;;